Time;durP1;ratioP1;P1;durP2;ratioP2;P2;SDS_P1;SDS_P2;PMS_P1;PMS_P2;Temp;Humidity;BMP_temperature;BMP_pressure;BME280_temperature;BME280_humidity;BME280_pressure;Samples;Min_cycle;Max_cycle;Signal;HPM_P1;HPM_P2
2022/08/10 00:01:23;;;;;;;10.63;7.55;;;14.30;99.90;;;;;;5039156;28;20048;-86
2022/08/10 00:03:49;;;;;;;9.15;7.75;;;14.30;70.30;;;;;;5061561;28;20032;-86
2022/08/10 00:06:14;;;;;;;8.77;6.97;;;14.40;99.90;;;;;;5038444;28;20060;-85
2022/08/10 00:08:40;;;;;;;9.60;7.57;;;14.40;99.90;;;;;;5042497;28;20025;-86
2022/08/10 00:11:06;;;;;;;7.60;6.90;;;14.30;99.90;;;;;;5040694;28;20459;-85
2022/08/10 00:13:33;;;;;;;9.70;7.03;;;14.30;99.90;;;;;;5041435;28;20059;-86
2022/08/10 00:15:58;;;;;;;9.90;7.50;;;14.20;99.90;;;;;;5036351;28;20116;-86
2022/08/10 00:18:26;;;;;;;7.95;6.03;;;14.20;98.70;;;;;;5043476;28;20118;-86
2022/08/10 00:20:52;;;;;;;7.15;5.78;;;14.10;1.00;;;;;;5038275;28;20098;-85
2022/08/10 00:23:18;;;;;;;10.05;8.00;;;14.20;1.00;;;;;;5043236;28;20051;-86
2022/08/10 00:25:44;;;;;;;10.68;7.88;;;14.20;99.90;;;;;;5067706;28;20032;-85
2022/08/10 00:28:10;;;;;;;9.23;7.10;;;14.20;99.90;;;;;;5044073;28;20087;-85
2022/08/10 00:30:36;;;;;;;7.68;6.88;;;14.20;85.70;;;;;;5089535;28;20033;-85
2022/08/10 00:33:03;;;;;;;9.88;7.63;;;14.10;99.90;;;;;;5038629;28;20033;-85
2022/08/10 00:35:28;;;;;;;11.43;7.95;;;14.20;99.90;;;;;;5042198;28;20247;-86
2022/08/10 00:37:54;;;;;;;5.95;5.13;;;14.20;99.90;;;;;;5047451;28;20048;-85
2022/08/10 00:40:20;;;;;;;29.90;4.00;;;14.00;99.90;;;;;;5064348;28;20038;-85
2022/08/10 00:42:46;;;;;;;10.45;7.47;;;14.00;99.90;;;;;;5040324;28;20500;-85
2022/08/10 00:45:12;;;;;;;9.70;7.05;;;14.00;93.40;;;;;;5042110;28;20115;-85
2022/08/10 00:47:37;;;;;;;6.70;5.68;;;13.80;1.00;;;;;;5062055;28;20036;-85
2022/08/10 00:50:07;;;;;;;25.42;6.68;;;13.80;1.00;;;;;;5042267;28;20025;-86
2022/08/10 00:52:34;;;;;;;6.90;6.20;;;13.70;1.00;;;;;;5059969;28;20314;-85
2022/08/10 00:55:04;;;;;;;9.63;6.10;;;13.80;1.00;;;;;;5060576;28;20036;-85
2022/08/10 00:57:29;;;;;;;10.50;7.65;;;13.80;51.40;;;;;;5047587;28;20461;-85
2022/08/10 00:59:55;;;;;;;10.98;7.65;;;13.90;53.90;;;;;;5044716;28;20036;-85
2022/08/10 01:02:21;;;;;;;8.82;7.05;;;13.90;99.90;;;;;;5040178;28;20075;-85
2022/08/10 01:04:47;;;;;;;9.60;7.57;;;13.80;99.90;;;;;;5070565;28;20107;-85
2022/08/10 01:08:04;;;;;;;10.52;8.40;;;13.90;99.90;;;;;;5040525;28;20178;-84
2022/08/10 01:10:47;;;;;;;12.68;8.85;;;13.90;99.90;;;;;;5042350;28;20423;-85
2022/08/10 01:13:22;;;;;;;9.52;7.70;;;13.90;99.90;;;;;;5063997;28;20029;-85
2022/08/10 01:15:57;;;;;;;14.80;5.78;;;13.80;99.90;;;;;;5073754;28;20040;-85
2022/08/10 01:18:27;;;;;;;9.70;8.40;;;13.70;99.90;;;;;;5060060;28;20403;-85
2022/08/10 01:21:20;;;;;;;11.40;8.98;;;13.70;99.90;;;;;;5045473;28;20090;-85
2022/08/10 01:24:31;;;;;;;16.95;10.13;;;13.80;99.90;;;;;;5038679;28;20033;-85
2022/08/10 01:27:12;;;;;;;15.25;10.93;;;13.80;1.00;;;;;;5039436;28;20117;-85
2022/08/10 01:29:56;;;;;;;12.23;9.43;;;13.90;99.90;;;;;;5065957;28;20542;-85
2022/08/10 01:32:52;;;;;;;15.45;11.13;;;13.90;97.50;;;;;;5066386;28;20289;-84
2022/08/10 01:35:28;;;;;;;15.98;11.77;;;14.10;99.90;;;;;;5069909;28;20557;-84
2022/08/10 01:38:05;;;;;;;15.65;11.77;;;14.10;99.90;;;;;;5069146;28;20044;-85
2022/08/10 01:40:34;;;;;;;15.00;10.95;;;14.10;99.90;;;;;;5070030;28;20119;-84
2022/08/10 01:43:05;;;;;;;16.08;11.40;;;14.20;99.90;;;;;;5042403;28;20037;-85
2022/08/10 01:45:34;;;;;;;17.52;12.07;;;14.10;99.90;;;;;;5055258;28;20044;-85
2022/08/10 01:50:54;;;;;;;10.10;7.80;;;14.20;99.90;;;;;;5059158;28;20115;-86
2022/08/10 01:53:23;;;;;;;8.95;7.07;;;14.00;1.00;;;;;;5056289;28;20029;-85
2022/08/10 01:55:52;;;;;;;15.85;8.85;;;14.00;1.00;;;;;;5055842;28;20047;-86
2022/08/10 01:58:19;;;;;;;13.48;8.55;;;14.00;1.00;;;;;;5055960;28;20040;-85
2022/08/10 02:00:47;;;;;;;10.98;9.50;;;14.00;18.70;;;;;;5037578;28;20024;-85
2022/08/10 02:03:15;;;;;;;10.70;8.55;;;13.90;20.70;;;;;;5042175;28;20124;-85
2022/08/10 02:05:43;;;;;;;13.27;9.25;;;13.90;17.20;;;;;;5046463;28;20668;-85
2022/08/10 02:08:14;;;;;;;11.57;9.57;;;13.80;1.00;;;;;;5064541;28;20125;-85
2022/08/10 02:10:42;;;;;;;11.65;9.23;;;13.90;1.00;;;;;;5041971;28;20096;-85
2022/08/10 02:13:10;;;;;;;38.17;13.88;;;13.80;1.00;;;;;;5040483;28;20037;-85
2022/08/10 02:15:38;;;;;;;17.35;11.05;;;14.00;99.90;;;;;;5072166;28;20531;-85
2022/08/10 02:18:05;;;;;;;15.00;10.80;;;14.00;99.90;;;;;;5043067;28;20127;-85
2022/08/10 02:20:44;;;;;;;16.92;11.77;;;13.90;99.90;;;;;;5070857;28;20056;-85
2022/08/10 02:23:23;;;;;;;16.60;12.02;;;14.00;99.90;;;;;;5038955;28;20115;-85
2022/08/10 02:25:52;;;;;;;10.13;7.55;;;13.90;99.90;;;;;;5039883;28;20124;-85
2022/08/10 02:28:22;;;;;;;14.98;11.00;;;13.70;1.00;;;;;;5085836;28;20543;-86
2022/08/10 02:30:49;;;;;;;13.75;7.53;;;13.80;1.00;;;;;;5075962;28;20040;-85
2022/08/10 02:33:18;;;;;;;13.25;9.93;;;13.90;1.00;;;;;;5042075;28;20048;-85
2022/08/10 02:35:50;;;;;;;39.75;9.55;;;14.00;1.00;;;;;;5038874;28;20087;-85
2022/08/10 02:38:21;;;;;;;11.35;8.57;;;13.80;1.00;;;;;;5068993;28;20120;-85
2022/08/10 02:40:55;;;;;;;15.20;11.05;;;13.80;1.00;;;;;;5054713;28;20039;-85
2022/08/10 02:43:27;;;;;;;15.13;10.57;;;13.80;1.00;;;;;;5043646;28;20174;-85
2022/08/10 02:45:59;;;;;;;17.65;9.73;;;13.90;1.00;;;;;;5069589;28;20389;-85
2022/08/10 02:48:39;;;;;;;14.40;10.52;;;13.90;1.00;;;;;;5042563;28;20325;-86
2022/08/10 02:51:12;;;;;;;16.40;11.18;;;13.80;1.00;;;;;;5086217;28;20104;-85
2022/08/10 02:53:46;;;;;;;17.23;12.10;;;13.90;1.00;;;;;;5057618;28;20400;-85
2022/08/10 02:56:27;;;;;;;18.17;13.18;;;14.00;62.20;;;;;;5069750;28;20040;-85
2022/08/10 02:58:58;;;;;;;19.25;13.15;;;13.90;61.50;;;;;;5058934;28;20635;-85
2022/08/10 03:01:31;;;;;;;16.98;11.57;;;14.00;99.90;;;;;;5054875;28;20056;-85
2022/08/10 03:04:33;;;;;;;18.27;12.68;;;14.00;99.90;;;;;;5071768;28;20086;-85
2022/08/10 03:07:03;;;;;;;102.78;17.13;;;14.10;99.90;;;;;;5036988;28;20808;-85
2022/08/10 03:09:32;;;;;;;328.02;32.70;;;14.10;99.90;;;;;;5041106;28;20097;-84
2022/08/10 03:12:00;;;;;;;52.60;16.08;;;14.20;1.00;;;;;;5083957;28;20037;-85
2022/08/10 03:14:27;;;;;;;387.15;30.13;;;14.00;99.90;;;;;;5068209;28;20055;-84
2022/08/10 03:16:55;;;;;;;46.65;18.15;;;14.10;1.00;;;;;;5067522;28;20106;-86
2022/08/10 03:19:23;;;;;;;28.65;16.50;;;14.30;17.30;;;;;;5058899;28;20041;-85
2022/08/10 03:21:50;;;;;;;34.65;16.98;;;14.30;97.00;;;;;;5056787;28;20044;-85
2022/08/10 03:24:21;;;;;;;47.38;16.27;;;14.20;99.90;;;;;;5051037;28;20132;-84
2022/08/10 03:26:48;;;;;;;29.48;17.63;;;14.30;99.90;;;;;;5080843;28;20028;-86
2022/08/10 03:29:16;;;;;;;31.40;16.30;;;14.40;99.90;;;;;;5043027;28;20029;-85
2022/08/10 03:31:42;;;;;;;74.22;18.42;;;14.40;99.90;;;;;;5060851;28;20044;-85
2022/08/10 03:34:09;;;;;;;59.55;16.65;;;14.40;99.90;;;;;;5043023;28;20132;-85
2022/08/10 03:36:34;;;;;;;99.30;17.30;;;14.40;99.90;;;;;;5049801;28;20459;-85
2022/08/10 03:39:00;;;;;;;42.08;15.05;;;14.40;99.90;;;;;;5074037;28;20070;-85
2022/08/10 03:41:35;;;;;;;19.60;12.15;;;14.40;99.90;;;;;;5042300;28;20045;-84
2022/08/10 03:44:03;;;;;;;54.22;16.48;;;14.40;99.90;;;;;;5042955;28;20060;-85
2022/08/10 03:46:32;;;;;;;34.47;17.80;;;14.50;99.90;;;;;;5042221;28;20553;-85
2022/08/10 03:49:01;;;;;;;27.35;14.43;;;14.50;99.90;;;;;;5042623;28;20594;-85
2022/08/10 03:51:27;;;;;;;53.72;16.88;;;14.50;99.90;;;;;;5048266;28;20124;-85
2022/08/10 03:53:53;;;;;;;161.63;16.23;;;14.50;99.90;;;;;;5087593;28;20400;-85
2022/08/10 03:56:20;;;;;;;63.97;14.13;;;14.20;99.90;;;;;;5063331;28;20036;-85
2022/08/10 03:58:47;;;;;;;23.25;13.07;;;14.10;99.90;;;;;;5039097;28;20033;-85
2022/08/10 04:01:14;;;;;;;21.35;13.25;;;14.10;99.90;;;;;;5043630;28;20408;-85
2022/08/10 04:03:40;;;;;;;21.85;13.25;;;14.20;99.90;;;;;;5073258;28;20041;-86
2022/08/10 04:06:06;;;;;;;35.25;15.77;;;14.30;99.90;;;;;;5045085;28;20055;-86
2022/08/10 04:08:32;;;;;;;403.08;34.28;;;14.30;99.90;;;;;;5044802;28;20396;-85
2022/08/10 04:10:58;;;;;;;476.92;33.20;;;14.40;99.90;;;;;;5061115;28;20043;-85
2022/08/10 04:13:23;;;;;;;49.05;14.77;;;14.40;99.90;;;;;;5051360;28;20041;-85
2022/08/10 04:15:49;;;;;;;46.83;14.93;;;14.40;99.90;;;;;;5072715;28;20036;-85
2022/08/10 04:18:15;;;;;;;311.65;25.15;;;14.50;99.90;;;;;;5058061;28;20087;-85
2022/08/10 04:20:57;;;;;;;85.40;18.13;;;14.50;99.90;;;;;;5044607;28;20629;-84
2022/08/10 04:23:28;;;;;;;95.53;18.33;;;14.40;99.90;;;;;;5090818;27;20048;-85
2022/08/10 04:25:54;;;;;;;31.42;13.35;;;14.40;99.90;;;;;;5057364;28;20111;-85
2022/08/10 04:28:20;;;;;;;138.52;19.15;;;14.20;99.90;;;;;;5053665;28;20392;-86
2022/08/10 04:30:49;;;;;;;38.50;15.43;;;14.20;99.90;;;;;;5046055;28;20032;-85
2022/08/10 04:33:19;;;;;;;22.92;14.60;;;14.40;99.90;;;;;;5045010;28;20119;-85
2022/08/10 04:35:46;;;;;;;24.13;14.65;;;14.50;99.90;;;;;;5073966;28;20424;-85
2022/08/10 04:38:13;;;;;;;29.27;18.35;;;14.60;99.90;;;;;;5063411;28;20095;-85
2022/08/10 04:40:40;;;;;;;25.63;15.63;;;14.70;99.90;;;;;;5041442;28;20790;-85
2022/08/10 04:43:06;;;;;;;21.52;14.55;;;14.70;99.90;;;;;;5082166;28;20573;-85
2022/08/10 04:45:32;;;;;;;25.70;14.77;;;14.80;99.90;;;;;;5058672;28;20029;-85
2022/08/10 04:47:58;;;;;;;22.70;15.35;;;14.90;99.90;;;;;;5043946;28;20036;-86
2022/08/10 04:50:26;;;;;;;21.38;14.57;;;14.90;99.90;;;;;;5074298;28;20078;-85
2022/08/10 04:52:52;;;;;;;21.80;13.95;;;14.90;99.90;;;;;;5040567;28;20043;-85
2022/08/10 04:55:18;;;;;;;19.55;13.05;;;15.00;99.90;;;;;;5042968;28;20058;-85
2022/08/10 04:57:44;;;;;;;18.65;12.80;;;14.90;99.90;;;;;;5067973;28;20041;-84
2022/08/10 05:00:13;;;;;;;21.30;15.13;;;14.90;99.90;;;;;;5061015;28;20040;-85
2022/08/10 05:02:39;;;;;;;33.78;16.48;;;15.10;99.90;;;;;;5085645;28;20069;-85
2022/08/10 05:05:08;;;;;;;23.50;14.05;;;15.20;99.90;;;;;;5042986;28;20056;-85
2022/08/10 05:07:37;;;;;;;25.42;15.25;;;15.20;99.90;;;;;;5044710;28;20048;-84
2022/08/10 05:10:03;;;;;;;23.98;15.20;;;15.20;99.90;;;;;;5058447;28;20151;-85
2022/08/10 05:12:29;;;;;;;20.42;14.25;;;15.30;99.90;;;;;;5037788;28;20063;-84
2022/08/10 05:14:55;;;;;;;22.67;15.43;;;15.40;99.90;;;;;;5045317;28;20060;-84
2022/08/10 05:17:22;;;;;;;24.63;15.45;;;15.60;99.90;;;;;;5037381;28;20051;-85
2022/08/10 05:19:47;;;;;;;23.83;14.60;;;15.70;99.90;;;;;;5060647;28;20032;-85
2022/08/10 05:22:13;;;;;;;20.08;13.90;;;15.80;99.90;;;;;;5064679;28;20047;-85
2022/08/10 05:24:39;;;;;;;20.70;15.13;;;15.90;99.90;;;;;;5044500;28;20037;-84
2022/08/10 05:27:05;;;;;;;21.13;14.57;;;16.10;99.90;;;;;;5056755;28;20036;-84
2022/08/10 05:29:31;;;;;;;23.55;13.88;;;16.10;99.90;;;;;;5071434;28;20555;-84
2022/08/10 05:31:59;;;;;;;23.17;14.07;;;16.30;99.90;;;;;;5043725;28;20231;-85
2022/08/10 05:34:27;;;;;;;20.63;14.57;;;16.30;99.90;;;;;;5085958;28;20112;-84
2022/08/10 05:36:54;;;;;;;23.08;14.10;;;16.40;99.90;;;;;;5053793;28;22215;-85
2022/08/10 05:39:22;;;;;;;18.50;13.52;;;16.50;99.90;;;;;;5040289;28;20033;-84
2022/08/10 05:41:51;;;;;;;19.80;13.50;;;16.60;99.90;;;;;;5064343;28;20071;-84
2022/08/10 05:44:17;;;;;;;18.48;12.82;;;16.80;99.90;;;;;;5040416;28;20396;-85
2022/08/10 05:46:44;;;;;;;16.27;12.77;;;16.80;99.90;;;;;;5046975;28;20044;-84
2022/08/10 05:49:12;;;;;;;16.42;11.90;;;16.90;99.90;;;;;;5059714;28;20135;-85
2022/08/10 05:51:38;;;;;;;16.08;11.77;;;16.90;99.90;;;;;;5063420;28;20148;-85
2022/08/10 05:54:13;;;;;;;16.92;12.10;;;16.90;83.40;;;;;;5058567;28;20971;-85
2022/08/10 05:56:43;;;;;;;17.10;12.00;;;17.10;1.00;;;;;;5065037;28;20044;-85
2022/08/10 05:59:14;;;;;;;15.75;11.68;;;17.10;1.00;;;;;;5043695;28;20032;-85
2022/08/10 06:01:42;;;;;;;15.57;11.30;;;17.20;99.90;;;;;;5062588;28;20125;-85
2022/08/10 06:04:12;;;;;;;14.73;10.85;;;17.20;99.90;;;;;;5046750;28;20452;-85
2022/08/10 06:06:39;;;;;;;15.57;10.73;;;17.20;99.90;;;;;;5042129;28;20377;-84
2022/08/10 06:09:07;;;;;;;13.50;10.43;;;17.30;99.90;;;;;;5045047;28;20500;-85
2022/08/10 06:11:36;;;;;;;13.20;9.75;;;17.40;99.90;;;;;;5055351;28;20566;-84
2022/08/10 06:16:49;;;;;;;13.50;9.70;;;17.60;99.90;;;;;;5075661;28;20562;-85
2022/08/10 06:19:16;;;;;;;13.48;9.85;;;17.70;53.80;;;;;;5045316;28;20085;-85
2022/08/10 06:21:45;;;;;;;11.63;9.40;;;17.70;1.00;;;;;;5061601;28;20127;-85
2022/08/10 06:24:16;;;;;;;12.50;9.02;;;17.70;1.00;;;;;;5067707;28;20094;-84
2022/08/10 06:26:42;;;;;;;10.45;8.80;;;17.70;1.00;;;;;;5071363;28;20052;-85
2022/08/10 06:29:17;;;;;;;13.20;8.77;;;17.80;99.90;;;;;;5041019;28;20048;-84
2022/08/10 06:31:47;;;;;;;14.25;8.85;;;17.90;99.90;;;;;;5041843;28;20195;-85
2022/08/10 06:34:19;;;;;;;12.75;8.88;;;18.00;99.90;;;;;;5048384;28;20534;-85
2022/08/10 06:36:45;;;;;;;12.52;8.52;;;18.00;99.90;;;;;;5042703;28;20036;-85
2022/08/10 06:39:11;;;;;;;10.98;8.15;;;18.20;97.60;;;;;;5042207;28;20037;-84
2022/08/10 06:41:43;;;;;;;10.65;8.00;;;18.20;94.90;;;;;;5053706;28;20138;-83
2022/08/10 06:44:15;;;;;;;10.38;7.68;;;18.20;1.00;;;;;;5064661;28;20116;-84
2022/08/10 06:46:46;;;;;;;9.13;7.22;;;18.30;99.90;;;;;;5078604;28;20047;-85
2022/08/10 06:49:14;;;;;;;11.40;7.53;;;18.40;99.90;;;;;;5045834;28;20056;-86
2022/08/10 06:51:41;;;;;;;12.32;7.50;;;18.30;99.90;;;;;;5044513;28;20461;-86
2022/08/10 06:54:09;;;;;;;10.52;6.78;;;18.50;99.90;;;;;;5049335;28;20043;-86
2022/08/10 06:56:38;;;;;;;8.90;6.20;;;18.70;99.90;;;;;;5071980;28;20039;-86
2022/08/10 06:59:15;;;;;;;7.78;6.03;;;18.70;99.90;;;;;;5044862;28;20036;-86
2022/08/10 07:01:43;;;;;;;7.22;6.05;;;18.80;42.00;;;;;;5086090;28;20049;-86
2022/08/10 07:04:19;;;;;;;7.07;5.95;;;18.90;29.30;;;;;;5040281;28;20044;-86
2022/08/10 07:06:47;;;;;;;7.20;5.50;;;18.90;1.00;;;;;;5066628;28;20118;-86
2022/08/10 07:09:18;;;;;;;7.00;5.40;;;18.90;99.90;;;;;;5064983;28;20408;-86
2022/08/10 07:11:46;;;;;;;8.05;5.22;;;19.00;99.90;;;;;;5057625;28;20043;-86
2022/08/10 07:14:15;;;;;;;5.95;4.85;;;19.10;99.90;;;;;;5053700;28;20044;-86
2022/08/10 07:16:43;;;;;;;5.70;4.93;;;19.20;99.90;;;;;;5044322;28;20049;-86
2022/08/10 07:19:10;;;;;;;7.93;4.88;;;19.30;99.90;;;;;;5044389;28;20032;-86
2022/08/10 07:21:43;;;;;;;5.40;4.75;;;19.30;99.90;;;;;;5044100;28;20048;-86
2022/08/10 07:24:11;;;;;;;12.82;5.35;;;19.40;99.90;;;;;;5074993;28;20029;-86
2022/08/10 07:26:42;;;;;;;7.45;4.80;;;19.40;99.90;;;;;;5043567;28;20187;-86
2022/08/10 07:29:08;;;;;;;7.13;4.90;;;19.50;99.90;;;;;;5042357;28;20044;-86
2022/08/10 07:31:36;;;;;;;11.13;5.10;;;19.60;99.90;;;;;;5060938;28;20036;-86
2022/08/10 07:34:05;;;;;;;7.20;5.15;;;19.70;99.90;;;;;;5071187;28;20526;-86
2022/08/10 07:36:34;;;;;;;6.53;5.15;;;19.70;59.40;;;;;;5048944;28;20067;-86
2022/08/10 07:39:00;;;;;;;5.38;4.85;;;19.80;34.00;;;;;;5046943;28;20062;-87
2022/08/10 07:41:31;;;;;;;8.55;4.85;;;19.80;1.00;;;;;;5087544;28;20071;-87
2022/08/10 07:44:01;;;;;;;6.55;4.50;;;19.80;1.00;;;;;;5072420;28;20080;-87
2022/08/10 07:46:30;;;;;;;7.35;4.63;;;20.00;1.00;;;;;;5061639;28;20060;-85
2022/08/10 07:49:04;;;;;;;5.22;4.20;;;20.10;1.00;;;;;;5044965;28;20037;-86
2022/08/10 07:51:34;;;;;;;7.07;4.60;;;20.20;1.00;;;;;;5063494;28;20094;-86
2022/08/10 07:54:04;;;;;;;5.72;4.90;;;20.40;1.00;;;;;;5043123;28;20779;-86
2022/08/10 07:56:32;;;;;;;6.15;4.70;;;20.50;99.90;;;;;;5060283;28;20044;-86
2022/08/10 07:59:06;;;;;;;7.55;4.53;;;20.40;99.90;;;;;;5060136;28;20118;-87
2022/08/10 08:01:35;;;;;;;7.75;5.00;;;20.60;99.90;;;;;;5072562;28;20068;-86
2022/08/10 08:04:05;;;;;;;6.68;4.95;;;20.70;99.90;;;;;;5048517;28;20040;-87
2022/08/10 08:06:32;;;;;;;6.65;4.55;;;20.70;99.90;;;;;;5047623;28;20048;-86
2022/08/10 08:08:59;;;;;;;8.02;4.65;;;20.70;99.90;;;;;;5060157;28;20127;-86
2022/08/10 08:11:27;;;;;;;6.90;5.07;;;20.80;99.90;;;;;;5063081;28;20036;-87
2022/08/10 08:13:54;;;;;;;6.53;5.05;;;20.90;99.90;;;;;;5074076;28;20232;-86
2022/08/10 08:16:22;;;;;;;7.75;4.50;;;20.90;99.90;;;;;;5072081;28;20609;-86
2022/08/10 08:18:50;;;;;;;5.43;4.10;;;21.10;99.90;;;;;;5060741;28;20496;-86
2022/08/10 08:21:19;;;;;;;5.18;4.07;;;21.10;99.90;;;;;;5043807;28;20036;-86
2022/08/10 08:23:48;;;;;;;6.65;3.92;;;21.30;99.90;;;;;;5063103;28;20050;-86
2022/08/10 08:26:17;;;;;;;6.45;4.05;;;21.30;99.90;;;;;;5059090;28;20044;-85
2022/08/10 08:28:44;;;;;;;6.13;3.97;;;21.30;99.90;;;;;;5048650;28;20041;-86
2022/08/10 08:31:12;;;;;;;5.93;4.10;;;21.40;99.90;;;;;;5043919;28;20032;-86
2022/08/10 08:33:40;;;;;;;6.35;3.75;;;21.40;1.00;;;;;;5043879;28;20036;-86
2022/08/10 08:36:09;;;;;;;6.82;3.63;;;21.60;99.90;;;;;;5043856;28;20120;-86
2022/08/10 08:38:36;;;;;;;10.90;3.92;;;21.80;1.00;;;;;;5061489;28;20081;-87
2022/08/10 08:41:19;;;;;;;6.40;3.35;;;21.90;1.00;;;;;;5059899;28;20483;-87
2022/08/10 08:44:11;;;;;;;8.25;3.85;;;22.10;1.00;;;;;;5039741;28;20045;-86
2022/08/10 08:47:05;;;;;;;5.45;3.63;;;22.10;1.00;;;;;;5057519;28;20032;-86
2022/08/10 08:49:53;;;;;;;7.22;3.65;;;22.30;1.00;;;;;;5060452;28;20241;-87
2022/08/10 08:52:49;;;;;;;6.95;3.70;;;22.20;99.90;;;;;;5040919;28;20174;-86
2022/08/10 08:55:32;;;;;;;5.22;3.88;;;22.40;99.90;;;;;;5064470;28;20035;-86
2022/08/10 08:58:17;;;;;;;5.57;3.53;;;22.50;99.90;;;;;;5070217;28;20136;-87
2022/08/10 09:00:50;;;;;;;5.83;3.40;;;22.50;99.90;;;;;;5070805;28;20135;-87
2022/08/10 09:03:38;;;;;;;6.28;3.90;;;22.70;99.90;;;;;;5067344;28;20780;-87
2022/08/10 09:06:17;;;;;;;5.72;4.03;;;22.80;99.90;;;;;;5045226;28;20041;-86
2022/08/10 09:09:11;;;;;;;7.45;3.50;;;22.80;99.90;;;;;;5057219;28;20031;-86
2022/08/10 09:12:12;;;;;;;6.82;3.60;;;23.00;99.90;;;;;;5040560;28;22699;-87
2022/08/10 09:14:48;;;;;;;4.53;3.60;;;23.20;99.90;;;;;;5043847;28;20040;-87
2022/08/10 09:17:41;;;;;;;10.75;4.25;;;23.20;99.90;;;;;;5088617;28;20056;-86
2022/08/10 09:20:28;;;;;;;6.57;4.28;;;23.30;99.90;;;;;;5065621;28;20465;-86
2022/08/10 09:23:12;;;;;;;5.47;3.45;;;23.40;99.90;;;;;;5045967;28;20044;-87
2022/08/10 09:25:47;;;;;;;5.07;3.50;;;23.60;99.90;;;;;;5060134;28;20060;-86
2022/08/10 09:28:33;;;;;;;8.88;4.07;;;23.60;99.90;;;;;;5048014;28;20028;-87
2022/08/10 09:31:02;;;;;;;5.43;3.75;;;23.50;99.90;;;;;;5063779;28;20094;-87
2022/08/10 09:34:02;;;;;;;7.43;3.47;;;23.60;99.90;;;;;;5051311;28;20067;-86
2022/08/10 09:37:15;;;;;;;6.68;3.30;;;24.00;99.90;;;;;;5064259;28;20044;-86
2022/08/10 09:40:11;;;;;;;6.60;3.55;;;23.80;99.90;;;;;;5046652;28;20083;-87
2022/08/10 09:43:03;;;;;;;6.68;3.40;;;24.00;99.30;;;;;;5055289;28;20128;-87
2022/08/10 09:46:08;;;;;;;5.57;3.03;;;24.20;86.10;;;;;;5062586;28;20028;-87
2022/08/10 09:48:57;;;;;;;10.27;3.03;;;24.40;93.00;;;;;;5051012;28;20048;-86
2022/08/10 09:52:09;;;;;;;7.35;3.70;;;24.40;76.90;;;;;;5063894;28;20781;-86
2022/08/10 09:55:03;;;;;;;5.97;3.53;;;24.60;99.90;;;;;;5045400;28;20626;-87
2022/08/10 09:57:35;;;;;;;6.82;3.50;;;24.60;31.70;;;;;;5063459;28;20028;-87
2022/08/10 10:00:12;;;;;;;4.55;3.30;;;24.90;35.30;;;;;;5047626;28;20605;-87
2022/08/10 10:02:59;;;;;;;5.50;3.40;;;24.60;1.00;;;;;;5057774;28;20045;-88
2022/08/10 10:05:52;;;;;;;5.20;3.10;;;24.70;1.00;;;;;;5061985;28;20113;-87
2022/08/10 10:08:27;;;;;;;4.47;3.10;;;24.80;1.00;;;;;;5047442;28;20044;-86
2022/08/10 10:10:56;;;;;;;7.30;3.22;;;24.50;1.00;;;;;;5046323;28;20108;-87
2022/08/10 10:13:39;;;;;;;8.10;3.00;;;25.10;1.00;;;;;;5070776;28;20041;-88
2022/08/10 10:16:22;;;;;;;6.00;3.10;;;25.00;1.00;;;;;;5064059;28;20212;-87
2022/08/10 10:19:03;;;;;;;4.47;3.15;;;25.40;1.00;;;;;;5067217;28;20364;-86
2022/08/10 10:21:47;;;;;;;5.20;2.30;;;25.50;1.00;;;;;;5066771;28;20048;-87
2022/08/10 10:24:38;;;;;;;4.30;2.83;;;25.60;1.00;;;;;;5077676;28;20112;-87
2022/08/10 10:27:33;;;;;;;3.97;2.70;;;25.90;1.00;;;;;;5067265;28;20036;-86
2022/08/10 10:30:04;;;;;;;5.63;2.47;;;25.40;99.90;;;;;;5067297;28;20037;-87
2022/08/10 10:32:33;;;;;;;6.28;2.13;;;25.70;99.90;;;;;;5067042;28;20043;-88
2022/08/10 10:35:12;;;;;;;3.83;1.75;;;25.90;99.90;;;;;;5051011;28;20040;-87
2022/08/10 10:37:39;;;;;;;6.05;2.10;;;26.20;99.90;;;;;;5088094;28;20116;-87
2022/08/10 10:40:07;;;;;;;5.07;2.38;;;26.30;99.90;;;;;;5061088;28;20490;-86
2022/08/10 10:42:42;;;;;;;3.88;2.03;;;26.40;99.90;;;;;;5073673;28;20057;-87
2022/08/10 10:45:26;;;;;;;3.67;2.10;;;26.40;99.90;;;;;;5061240;28;20036;-87
2022/08/10 10:48:29;;;;;;;5.43;2.20;;;26.00;99.90;;;;;;5044220;28;20033;-87
2022/08/10 10:50:59;;;;;;;3.60;1.70;;;25.80;99.90;;;;;;5064831;28;20351;-86
2022/08/10 10:53:37;;;;;;;2.40;2.00;;;26.00;99.90;;;;;;5050486;28;20037;-87
2022/08/10 10:56:06;;;;;;;3.22;1.90;;;26.10;99.90;;;;;;5043933;28;20134;-87
2022/08/10 10:59:02;;;;;;;2.28;1.75;;;26.70;99.90;;;;;;5060068;28;20516;-87
2022/08/10 11:01:51;;;;;;;2.42;1.60;;;26.70;99.90;;;;;;5069881;28;20492;-87
2022/08/10 11:04:33;;;;;;;3.10;1.80;;;26.90;99.90;;;;;;5064029;28;20102;-87
2022/08/10 11:07:09;;;;;;;4.80;1.95;;;27.10;99.90;;;;;;5048188;28;20040;-87
2022/08/10 11:09:58;;;;;;;4.72;1.80;;;27.30;99.90;;;;;;5059307;28;20037;-87
2022/08/10 11:12:41;;;;;;;4.30;1.85;;;26.80;99.90;;;;;;5077336;28;20276;-87
2022/08/10 11:15:30;;;;;;;3.00;1.63;;;26.70;99.90;;;;;;5063920;28;20044;-87
2022/08/10 11:18:00;;;;;;;2.92;1.65;;;26.90;99.90;;;;;;5063175;28;20507;-87
2022/08/10 11:20:37;;;;;;;3.42;1.60;;;27.20;99.90;;;;;;5050246;28;20072;-87
2022/08/10 11:23:30;;;;;;;5.85;1.50;;;26.60;99.90;;;;;;5069084;28;20074;-88
2022/08/10 11:26:09;;;;;;;3.05;1.40;;;27.20;99.90;;;;;;5043909;28;20047;-87
2022/08/10 11:28:50;;;;;;;2.22;1.40;;;27.30;99.90;;;;;;5093216;28;20151;-88
2022/08/10 11:31:36;;;;;;;2.13;1.50;;;26.90;99.90;;;;;;5064228;28;20391;-88
2022/08/10 11:34:11;;;;;;;3.10;1.83;;;27.10;99.90;;;;;;5064700;28;20032;-87
2022/08/10 11:37:35;;;;;;;2.88;1.40;;;27.80;99.90;;;;;;5054674;28;20844;-88
2022/08/10 11:40:14;;;;;;;5.45;1.48;;;27.90;99.90;;;;;;5052632;28;20116;-87
2022/08/10 11:43:21;;;;;;;3.17;1.50;;;28.20;99.90;;;;;;5072097;28;20036;-87
2022/08/10 11:45:53;;;;;;;3.90;1.20;;;28.10;99.90;;;;;;5013267;28;20064;-87
2022/08/10 11:48:31;;;;;;;3.47;1.30;;;28.20;99.90;;;;;;5038502;28;20124;-87
2022/08/10 11:51:00;;;;;;;1.83;1.35;;;28.20;99.90;;;;;;5056961;28;20047;-88
2022/08/10 11:53:56;;;;;;;2.28;1.50;;;28.40;99.90;;;;;;5043041;28;20094;-88
2022/08/10 11:56:31;;;;;;;4.43;1.42;;;28.50;99.90;;;;;;5057178;28;20087;-87
2022/08/10 12:01:44;;;;;;;4.50;1.60;;;27.90;99.90;;;;;;5059172;28;20135;-87
2022/08/10 12:04:12;;;;;;;2.75;1.55;;;27.60;99.90;;;;;;5061574;28;20051;-87
2022/08/10 12:06:39;;;;;;;1.73;1.20;;;27.70;99.90;;;;;;5048010;28;20314;-88
2022/08/10 12:09:06;;;;;;;3.60;1.55;;;28.30;99.90;;;;;;5045226;28;20044;-88
2022/08/10 12:11:33;;;;;;;1.35;1.20;;;28.40;99.90;;;;;;5074591;28;20078;-87
2022/08/10 12:14:07;;;;;;;3.67;1.40;;;28.50;99.90;;;;;;5043254;28;20392;-88
2022/08/10 12:16:38;;;;;;;1.63;1.33;;;28.00;77.50;;;;;;5062013;28;20224;-87
2022/08/10 12:19:37;;;;;;;2.83;1.30;;;28.50;81.10;;;;;;5071210;28;20310;-88
2022/08/10 12:22:10;;;;;;;2.80;1.50;;;29.00;92.70;;;;;;5022119;28;20053;-88
2022/08/10 12:24:51;;;;;;;1.85;1.30;;;29.40;90.40;;;;;;5086815;28;20452;-87
2022/08/10 12:27:28;;;;;;;5.78;1.70;;;29.40;94.30;;;;;;5064582;28;20062;-88
2022/08/10 12:30:31;;;;;;;2.88;1.70;;;28.60;75.50;;;;;;5044421;28;20323;-87
2022/08/10 12:33:21;;;;;;;5.32;1.70;;;28.70;91.00;;;;;;5044803;28;20041;-88
2022/08/10 12:36:10;;;;;;;4.80;1.70;;;28.00;68.30;;;;;;5039095;28;20061;-84
2022/08/10 12:38:58;;;;;;;5.53;1.92;;;28.50;85.50;;;;;;5056671;28;20095;-86
2022/08/10 12:41:29;;;;;;;4.20;1.92;;;29.20;88.60;;;;;;5042829;28;20039;-86
2022/08/10 12:44:08;;;;;;;3.28;1.60;;;29.40;85.80;;;;;;5047884;28;20104;-86
2022/08/10 12:47:00;;;;;;;2.75;1.70;;;29.00;81.40;;;;;;5037519;28;20098;-86
2022/08/10 12:49:52;;;;;;;3.38;1.85;;;28.80;79.00;;;;;;5084358;28;20112;-85
2022/08/10 12:52:30;;;;;;;3.13;1.38;;;29.30;91.90;;;;;;5048929;28;20765;-86
2022/08/10 12:54:58;;;;;;;3.05;1.50;;;29.90;87.50;;;;;;5059309;28;20436;-85
2022/08/10 12:57:26;;;;;;;4.20;1.63;;;30.30;87.10;;;;;;5058344;28;20156;-86
2022/08/10 12:59:57;;;;;;;3.97;1.60;;;30.00;76.70;;;;;;5045926;28;20036;-86
2022/08/10 13:02:31;;;;;;;2.78;1.60;;;29.80;64.20;;;;;;5043208;28;20067;-85
2022/08/10 13:05:00;;;;;;;3.42;1.45;;;30.20;71.10;;;;;;5040754;28;20075;-86
2022/08/10 13:07:41;;;;;;;4.82;1.60;;;30.40;70.10;;;;;;5058184;28;20029;-85
2022/08/10 13:10:09;;;;;;;2.45;1.60;;;30.60;72.80;;;;;;5065075;28;20579;-85
2022/08/10 13:12:49;;;;;;;6.75;1.85;;;30.60;69.30;;;;;;5042277;28;20040;-85
2022/08/10 13:15:19;;;;;;;4.60;1.98;;;30.70;60.70;;;;;;5038362;28;20500;-86
2022/08/10 13:17:49;;;;;;;4.18;1.63;;;30.50;56.10;;;;;;5060620;28;20047;-85
2022/08/10 13:20:35;;;;;;;4.00;1.55;;;30.80;67.90;;;;;;5041790;28;20124;-86
2022/08/10 13:23:10;;;;;;;7.05;1.40;;;30.90;56.70;;;;;;5042826;28;20392;-85